Weather History for KONA - March, 2014

Change the Weather History Date:

Saturday, March 8, 2014

  Actual Average Record
Temperature  
Mean Temperature 27 °F -  
Max Temperature 33 °F 44 °F 56 °F (1977)
Min Temperature 21 °F 24 °F -5 °F (2008)
Degree Days  
Heating Degree Days 38    
Moisture  
Dew Point 18 °F    
Average Humidity 65    
Maximum Humidity 93    
Minimum Humidity 51    
Precipitation  
Precipitation 0.00 in - - ()
Sea Level Pressure  
Sea Level Pressure 30.24 in    
Wind  
Wind Speed 5 mph (North)    
Max Wind Speed 10 mph    
Max Gust Speed 17 mph    
Visibility 10 miles    
Events      
Averages and records for this station are not official NWS values.
T = Trace of Precipitation, MM = Missing Value Source: NWS Daily Summary

Daily Weather History Graph

Daily Weather History Graph

Search for Another Location

Airport or City:

Trip Planner

Search our weather history database for the weather conditions in past years. The results will help you decide how hot, cold, wet, or windy it might be!

Date:

Astronomy

Mar. 08, 2014 Rise Set
Actual Time 6:31 AM CST 6:04 PM CST
Civil Twilight 6:02 AM CST 6:33 PM CST
Nautical Twilight 5:29 AM CST 7:06 PM CST
Astronomical Twilight 4:55 AM CST 7:40 PM CST
Moon 10:59 AM CST (3/8) 1:15 AM CST (3/8)
Length of Visible Light 12h 30m
Length of Day
11h 32m
First Quarter, 52% of the Moon is Illuminated
Mar 8
First Quarter
Mar 16
Full
Mar 23
Last Quarter
Mar 30
New
Apr 7
First Quarter

Hourly Weather History & Observations

Time (CST) Temp. Windchill Dew Point Humidity Pressure Visibility Wind Dir Wind Speed Gust Speed Precip Events Conditions
12:19 AM 32.0 °F 25.6 °F 30.2 °F 93% 30.12 in 10.0 mi NNW 6.9 mph - N/A   Overcast
12:39 AM 32.0 °F 28.7 °F 28.4 °F 87% 30.13 in 10.0 mi North 3.5 mph - N/A   Overcast
12:59 AM 32.0 °F 27.5 °F 28.4 °F 87% 30.14 in 10.0 mi North 4.6 mph - N/A   Overcast
1:19 AM 32.0 °F 27.5 °F 28.4 °F 87% 30.14 in 10.0 mi North 4.6 mph - N/A   Overcast
1:39 AM 32.0 °F 26.4 °F 28.4 °F 87% 30.15 in 10.0 mi North 5.8 mph - N/A   Overcast
1:59 AM 32.0 °F 25.6 °F 26.6 °F 80% 30.16 in 10.0 mi NNW 6.9 mph - N/A   Overcast
2:19 AM 32.0 °F 24.2 °F 26.6 °F 80% 30.16 in 10.0 mi NNW 9.2 mph - N/A   Overcast
2:39 AM 32.0 °F 25.6 °F 24.8 °F 75% 30.16 in 10.0 mi NNW 6.9 mph - N/A   Overcast
2:59 AM 30.2 °F 25.4 °F 23.0 °F 75% 30.17 in 10.0 mi North 4.6 mph - N/A   Overcast
3:19 AM 30.2 °F 24.3 °F 21.2 °F 69% 30.17 in 10.0 mi North 5.8 mph - N/A   Overcast
3:39 AM 30.2 °F 25.4 °F 21.2 °F 69% 30.17 in 10.0 mi North 4.6 mph - N/A   Overcast
3:59 AM 30.2 °F 23.4 °F 21.2 °F 69% 30.18 in 10.0 mi North 6.9 mph - N/A   Overcast
4:19 AM 30.2 °F 25.4 °F 21.2 °F 69% 30.19 in 10.0 mi NE 4.6 mph - N/A   Overcast
4:40 AM 30.2 °F 21.9 °F 19.4 °F 64% 30.20 in 10.0 mi NE 9.2 mph - N/A   Overcast
4:59 AM 30.2 °F 25.4 °F 19.4 °F 64% 30.21 in 10.0 mi NNE 4.6 mph - N/A   Overcast
5:19 AM 30.2 °F 23.4 °F 19.4 °F 64% 30.22 in 10.0 mi NE 6.9 mph - N/A   Overcast
5:40 AM 30.2 °F 22.6 °F 19.4 °F 64% 30.23 in 10.0 mi NE 8.1 mph - N/A   Overcast
5:59 AM 28.4 °F 19.7 °F 17.6 °F 64% 30.24 in 10.0 mi ENE 9.2 mph - N/A   Overcast
6:19 AM 28.4 °F 21.2 °F 17.6 °F 64% 30.25 in 10.0 mi ENE 6.9 mph - N/A   Overcast
6:40 AM 26.6 °F 20.0 °F 15.8 °F 64% 30.25 in 10.0 mi NE 5.8 mph - N/A   Overcast
6:59 AM 24.8 °F 20.5 °F 14.0 °F 64% 30.26 in 10.0 mi NE 3.5 mph - N/A   Overcast
7:19 AM 24.8 °F - 14.0 °F 64% 30.27 in 10.0 mi Calm Calm - N/A   Overcast
7:40 AM 24.8 °F 20.5 °F 14.0 °F 64% 30.28 in 10.0 mi North 3.5 mph - N/A   Overcast
7:59 AM 24.8 °F 20.5 °F 14.0 °F 64% 30.28 in 10.0 mi NNE 3.5 mph - N/A   Mostly Cloudy
8:19 AM 24.8 °F 19.1 °F 14.0 °F 64% 30.28 in 10.0 mi NE 4.6 mph - N/A   Mostly Cloudy
8:39 AM 26.6 °F 21.2 °F 14.0 °F 59% 30.29 in 10.0 mi NE 4.6 mph - N/A   Mostly Cloudy
8:59 AM 26.6 °F 21.2 °F 14.0 °F 59% 30.30 in 10.0 mi NE 4.6 mph - N/A   Mostly Cloudy
9:19 AM 28.4 °F 21.2 °F 14.0 °F 55% 30.30 in 10.0 mi NNE 6.9 mph - N/A   Scattered Clouds
9:39 AM 28.4 °F 22.2 °F 14.0 °F 55% 30.30 in 10.0 mi ENE 5.8 mph - N/A   Clear
9:59 AM 28.4 °F 22.2 °F 14.0 °F 55% 30.30 in 10.0 mi ENE 5.8 mph - N/A   Clear
10:20 AM 28.4 °F 23.3 °F 14.0 °F 55% 30.30 in 10.0 mi NE 4.6 mph - N/A   Clear
10:39 AM 30.2 °F 26.7 °F 15.8 °F 55% 30.30 in 10.0 mi North 3.5 mph - N/A   Clear
10:59 AM 30.2 °F 26.7 °F 15.8 °F 55% 30.30 in 10.0 mi NE 3.5 mph - N/A   Clear
11:20 AM 30.2 °F - 15.8 °F 55% 30.30 in 10.0 mi Calm Calm - N/A   Clear
11:39 AM 30.2 °F - 15.8 °F 55% 30.30 in 10.0 mi Calm Calm - N/A   Clear
11:59 AM 30.2 °F 25.4 °F 14.0 °F 51% 30.29 in 10.0 mi NE 4.6 mph - N/A   Clear
12:20 PM 30.2 °F 22.6 °F 15.8 °F 55% 30.29 in 10.0 mi NW 8.1 mph - N/A   Clear
12:39 PM 32.0 °F 27.5 °F 17.6 °F 55% 30.28 in 10.0 mi North 4.6 mph - N/A   Clear
12:59 PM 32.0 °F 28.7 °F 17.6 °F 55% 30.27 in 10.0 mi WNW 3.5 mph - N/A   Clear
1:20 PM 32.0 °F 24.8 °F 17.6 °F 55% 30.27 in 10.0 mi NNW 8.1 mph - N/A   Clear
1:39 PM 32.0 °F 24.8 °F 17.6 °F 55% 30.26 in 10.0 mi NNW 8.1 mph - N/A   Clear
1:59 PM 32.0 °F 27.5 °F 17.6 °F 55% 30.26 in 10.0 mi North 4.6 mph - N/A   Clear
2:19 PM 33.8 °F 26.4 °F 19.4 °F 56% 30.25 in 10.0 mi NNW 9.2 mph - N/A   Clear
2:39 PM 33.8 °F 25.8 °F 19.4 °F 56% 30.25 in 10.0 mi NNW 10.4 mph - N/A   Clear
3:00 PM 33.8 °F 25.8 °F 21.2 °F 60% 30.25 in 10.0 mi NNW 10.4 mph - N/A   Clear
3:19 PM 33.8 °F 28.6 °F 19.4 °F 56% 30.24 in 10.0 mi North 5.8 mph 17.3 mph N/A   Clear
3:39 PM 33.8 °F 25.8 °F 19.4 °F 56% 30.24 in 10.0 mi NNW 10.4 mph - N/A   Clear
4:00 PM 33.8 °F 27.0 °F 19.4 °F 56% 30.24 in 10.0 mi North 8.1 mph - N/A   Clear
4:19 PM 32.0 °F 24.8 °F 19.4 °F 60% 30.25 in 10.0 mi NNW 8.1 mph - N/A   Clear
4:39 PM 32.0 °F 24.2 °F 19.4 °F 60% 30.25 in 10.0 mi WNW 9.2 mph - N/A   Clear
5:00 PM 32.0 °F 24.8 °F 19.4 °F 60% 30.26 in 10.0 mi West 8.1 mph - N/A   Clear
5:19 PM 32.0 °F 25.6 °F 19.4 °F 60% 30.26 in 10.0 mi West 6.9 mph - N/A   Clear
5:39 PM 30.2 °F 23.4 °F 19.4 °F 64% 30.26 in 10.0 mi West 6.9 mph - N/A   Clear
6:00 PM 30.2 °F 24.3 °F 19.4 °F 64% 30.27 in 10.0 mi West 5.8 mph - N/A   Clear
6:19 PM 30.2 °F 24.3 °F 19.4 °F 64% 30.26 in 10.0 mi West 5.8 mph - N/A   Clear
6:39 PM 30.2 °F 25.4 °F 19.4 °F 64% 30.26 in 10.0 mi WNW 4.6 mph - N/A   Scattered Clouds
7:00 PM 28.4 °F 21.2 °F 17.6 °F 64% 30.27 in 10.0 mi WNW 6.9 mph - N/A   Scattered Clouds
7:19 PM 28.4 °F 24.6 °F 15.8 °F 59% 30.26 in 10.0 mi WNW 3.5 mph - N/A   Clear
7:39 PM 28.4 °F 24.6 °F 17.6 °F 64% 30.26 in 10.0 mi West 3.5 mph - N/A   Clear
8:00 PM 28.4 °F 24.6 °F 17.6 °F 64% 30.26 in 10.0 mi West 3.5 mph - N/A   Clear
8:19 PM 28.4 °F - 17.6 °F 64% 30.26 in 10.0 mi Calm Calm - N/A   Clear
8:39 PM 26.6 °F - 17.6 °F 69% 30.25 in 10.0 mi Calm Calm - N/A   Clear
9:00 PM 24.8 °F - 17.6 °F 74% 30.26 in 10.0 mi Calm Calm - N/A   Clear
9:19 PM 23.0 °F - 15.8 °F 74% 30.26 in 10.0 mi Calm Calm - N/A   Clear
9:39 PM 23.0 °F - 14.0 °F 68% 30.27 in 10.0 mi Calm Calm - N/A   Clear
10:00 PM 21.2 °F - 14.0 °F 74% 30.27 in 10.0 mi Calm Calm - N/A   Clear
10:19 PM 23.0 °F - 15.8 °F 74% 30.26 in 10.0 mi Calm Calm - N/A   Clear
10:39 PM 23.0 °F 18.4 °F 15.8 °F 74% 30.25 in 10.0 mi SW 3.5 mph - N/A   Clear
11:00 PM 23.0 °F 18.4 °F 15.8 °F 74% 30.25 in 10.0 mi WSW 3.5 mph - N/A   Clear
11:19 PM 21.2 °F 16.4 °F 14.0 °F 74% 30.25 in 10.0 mi SW 3.5 mph - N/A   Clear
11:39 PM 21.2 °F - 14.0 °F 74% 30.24 in 10.0 mi Calm Calm - N/A   Clear